createdAt,value
2019-04-19T00:01:02.732Z,7.50
2019-04-19T00:03:46.856Z,7.50
2019-04-19T00:07:09.086Z,7.40
2019-04-19T00:09:56.879Z,7.30
2019-04-19T00:12:47.038Z,7.30
2019-04-19T00:15:28.792Z,7.20
2019-04-19T00:18:19.658Z,7.10
2019-04-19T00:21:24.583Z,7.00
2019-04-19T00:23:57.880Z,6.80
2019-04-19T00:26:46.714Z,6.80
2019-04-19T00:29:44.930Z,6.80
2019-04-19T00:32:38.464Z,6.70
2019-04-19T00:35:13.717Z,6.70
2019-04-19T00:38:06.965Z,6.70
2019-04-19T00:41:14.150Z,6.70
2019-04-19T00:44:25.391Z,6.60
2019-04-19T00:47:13.184Z,6.60
2019-04-19T00:49:59.194Z,6.50
2019-04-19T00:52:52.226Z,6.40
2019-04-19T00:55:35.095Z,6.40
2019-04-19T00:58:18.425Z,6.40
2019-04-19T01:01:06.122Z,6.30
2019-04-19T01:03:52.248Z,6.20
2019-04-19T01:06:47.177Z,6.10
2019-04-19T01:09:42.344Z,6.00
2019-04-19T01:12:30.551Z,6.00
2019-04-19T01:15:19.718Z,6.00
2019-04-19T01:18:11.846Z,6.00
2019-04-19T01:20:48.018Z,5.90
2019-04-19T01:23:42.204Z,5.90
2019-04-19T01:26:25.684Z,5.90
2019-04-19T01:29:17.108Z,5.90
2019-04-19T01:32:08.723Z,5.80
2019-04-19T01:35:02.503Z,5.80
2019-04-19T01:37:48.354Z,5.80
2019-04-19T01:40:53.797Z,5.60
2019-04-19T01:43:40.898Z,5.50
2019-04-19T01:46:49.154Z,5.50
2019-04-19T01:49:49.149Z,5.50
2019-04-19T01:52:47.305Z,5.40
2019-04-19T01:55:18.610Z,5.40
2019-04-19T01:58:06.135Z,5.40
2019-04-19T02:00:53.573Z,5.40
2019-04-19T02:03:46.011Z,5.30
2019-04-19T02:06:34.567Z,5.30
2019-04-19T02:09:30.346Z,5.20
2019-04-19T02:12:25.098Z,5.20
2019-04-19T02:15:03.864Z,5.30
2019-04-19T02:17:49.568Z,5.20
2019-04-19T02:20:43.377Z,5.20
2019-04-19T02:23:26.045Z,5.20
2019-04-19T02:26:18.205Z,5.10
2019-04-19T02:29:09.163Z,5.10
2019-04-19T02:35:09.870Z,5.10
2019-04-19T02:38:01.506Z,5.00
2019-04-19T02:43:45.630Z,4.90
2019-04-19T02:46:36.413Z,4.90
2019-04-19T02:49:28.427Z,4.90
2019-04-19T02:52:09.640Z,4.90
2019-04-19T02:55:10.253Z,4.80
2019-04-19T03:01:28.100Z,4.70
2019-04-19T03:04:26.552Z,4.70
2019-04-19T03:06:43.638Z,4.60
2019-04-19T03:09:32.839Z,4.60
2019-04-19T03:12:37.038Z,4.50
2019-04-19T03:15:18.963Z,4.50
2019-04-19T03:18:19.211Z,4.50
2019-04-19T03:21:00.451Z,4.30
2019-04-19T03:23:55.027Z,4.30
2019-04-19T03:26:42.453Z,4.30
2019-04-19T03:29:26.834Z,4.30
2019-04-19T03:32:48.520Z,4.20
2019-04-19T03:35:06.558Z,4.30
2019-04-19T03:38:02.697Z,4.30
2019-04-19T03:40:51.958Z,4.20
2019-04-19T03:43:58.423Z,4.20
2019-04-19T03:46:40.497Z,4.10
2019-04-19T03:49:32.328Z,4.10
2019-04-19T03:52:18.720Z,4.10
2019-04-19T03:55:06.873Z,4.10
2019-04-19T03:57:47.945Z,4.10
2019-04-19T04:00:24.462Z,4.00
2019-04-19T04:03:19.580Z,4.00
2019-04-19T04:06:02.094Z,3.90
2019-04-19T04:09:00.390Z,3.90
2019-04-19T04:12:20.802Z,3.80
2019-04-19T04:15:23.639Z,3.80
2019-04-19T04:18:04.759Z,3.90
2019-04-19T04:20:56.191Z,3.90
2019-04-19T04:23:47.452Z,3.80
2019-04-19T04:26:42.834Z,3.80
2019-04-19T04:29:31.762Z,3.90
2019-04-19T04:32:19.835Z,3.80
2019-04-19T04:35:23.132Z,3.70
2019-04-19T04:38:02.640Z,3.70
2019-04-19T04:40:40.796Z,3.70
2019-04-19T04:43:38.665Z,3.80
2019-04-19T04:46:59.128Z,3.70
2019-04-19T04:50:24.081Z,3.70
2019-04-19T04:52:58.122Z,3.70
2019-04-19T04:55:58.114Z,3.70
2019-04-19T04:58:44.462Z,3.70
2019-04-19T05:01:43.627Z,3.80
2019-04-19T05:04:35.358Z,3.80
2019-04-19T05:07:28.749Z,3.90
2019-04-19T05:10:17.471Z,3.90
2019-04-19T05:15:58.089Z,4.00
2019-04-19T05:18:47.042Z,4.00
2019-04-19T05:21:37.275Z,4.10
2019-04-19T05:24:27.665Z,4.20
2019-04-19T05:27:24.735Z,4.30
2019-04-19T05:29:51.636Z,4.40
2019-04-19T05:32:43.546Z,4.50
2019-04-19T05:35:54.281Z,4.70
2019-04-19T05:39:04.873Z,4.90
2019-04-19T05:42:09.227Z,5.00
2019-04-19T05:45:24.639Z,5.20
2019-04-19T05:47:49.046Z,5.30
2019-04-19T05:50:44.788Z,5.50
2019-04-19T05:53:29.914Z,5.70
2019-04-19T05:56:07.428Z,5.90
2019-04-19T05:59:05.854Z,6.10
2019-04-19T06:01:59.023Z,6.20
2019-04-19T06:05:00.953Z,6.40
2019-04-19T06:07:39.096Z,6.60
2019-04-19T06:10:15.793Z,6.70
2019-04-19T06:13:08.958Z,7.00
2019-04-19T06:16:15.481Z,7.20
2019-04-19T06:19:08.684Z,7.40
2019-04-19T06:21:54.875Z,7.50
2019-04-19T06:24:47.136Z,7.80
2019-04-19T06:27:45.313Z,7.90
2019-04-19T06:30:27.757Z,8.10
2019-04-19T06:33:17.141Z,8.40
2019-04-19T06:35:51.920Z,8.50
2019-04-19T06:38:35.893Z,8.70
2019-04-19T06:41:26.745Z,8.90
2019-04-19T06:44:33.559Z,9.10
2019-04-19T06:47:15.773Z,9.30
2019-04-19T06:49:54.579Z,9.50
2019-04-19T06:52:42.769Z,9.70
2019-04-19T06:55:36.037Z,9.90
2019-04-19T06:58:24.926Z,10.10
2019-04-19T07:01:23.487Z,10.30
2019-04-19T07:03:59.964Z,10.50
2019-04-19T07:07:11.960Z,10.70
2019-04-19T07:10:04.609Z,11.00
2019-04-19T07:12:45.504Z,11.20
2019-04-19T07:15:48.568Z,11.40
2019-04-19T07:18:26.936Z,11.60
2019-04-19T07:21:19.958Z,11.90
2019-04-19T07:24:14.929Z,12.10
2019-04-19T07:26:56.626Z,12.30
2019-04-19T07:29:25.511Z,12.60
2019-04-19T07:32:17.686Z,12.80
2019-04-19T07:35:21.542Z,13.10
2019-04-19T07:38:25.193Z,13.40
2019-04-19T07:41:05.639Z,13.70
2019-04-19T07:44:16.487Z,14.00
2019-04-19T07:47:37.840Z,14.20
2019-04-19T07:50:24.378Z,14.40
2019-04-19T07:53:08.323Z,14.70
2019-04-19T07:56:07.909Z,15.00
2019-04-19T07:59:30.620Z,15.30
2019-04-19T08:02:17.024Z,15.50
2019-04-19T08:04:58.775Z,15.90
2019-04-19T08:07:49.183Z,15.90
2019-04-19T08:10:34.857Z,16.00
2019-04-19T08:13:33.695Z,16.30
2019-04-19T08:16:25.291Z,16.30
2019-04-19T08:27:23.119Z,17.00
2019-04-19T08:30:02.456Z,17.10
2019-04-19T08:32:42.669Z,17.20
2019-04-19T08:35:31.863Z,17.20
2019-04-19T08:38:25.699Z,17.30
2019-04-19T08:41:21.495Z,17.50
2019-04-19T08:44:15.221Z,17.60
2019-04-19T08:47:19.144Z,17.70
2019-04-19T08:50:13.439Z,17.80
2019-04-19T08:53:20.652Z,18.00
2019-04-19T08:56:10.248Z,17.90
2019-04-19T08:58:54.523Z,18.10
2019-04-19T09:01:50.704Z,18.30
2019-04-19T09:04:34.931Z,18.20
2019-04-19T09:07:46.048Z,18.40
2019-04-19T09:10:30.697Z,18.20
2019-04-19T09:13:19.614Z,18.50
2019-04-19T09:15:57.416Z,18.70
2019-04-19T09:18:50.636Z,18.80
2019-04-19T09:21:32.000Z,18.90
2019-04-19T09:24:12.861Z,19.00
2019-04-19T09:27:10.243Z,19.10
2019-04-19T09:30:05.207Z,19.10
2019-04-19T09:32:37.510Z,19.20
2019-04-19T09:35:31.000Z,19.00
2019-04-19T09:38:29.817Z,19.20
2019-04-19T09:41:13.478Z,19.30
2019-04-19T09:44:05.770Z,19.40
2019-04-19T09:46:44.680Z,19.40
2019-04-19T09:49:48.456Z,19.50
2019-04-19T09:52:45.541Z,19.40
2019-04-19T09:55:37.717Z,19.40
2019-04-19T09:58:21.140Z,19.40
2019-04-19T10:01:04.733Z,19.50
2019-04-19T10:03:58.975Z,19.60
2019-04-19T10:06:42.805Z,19.60
2019-04-19T10:09:30.984Z,19.70
2019-04-19T10:12:19.649Z,19.60
2019-04-19T10:15:11.917Z,19.80
2019-04-19T10:18:00.617Z,19.90
2019-04-19T10:21:05.013Z,20.00
2019-04-19T10:23:54.082Z,19.90
2019-04-19T10:26:50.390Z,20.00
2019-04-19T10:29:41.775Z,20.20
2019-04-19T10:32:30.810Z,20.30
2019-04-19T10:35:19.689Z,20.50
2019-04-19T10:38:09.476Z,20.60
2019-04-19T10:40:57.614Z,20.80
2019-04-19T10:43:59.662Z,20.90
2019-04-19T10:46:35.006Z,20.80
2019-04-19T10:49:33.523Z,20.90
2019-04-19T10:52:21.692Z,20.60
2019-04-19T10:55:10.639Z,20.50
2019-04-19T10:57:59.205Z,20.40
2019-04-19T11:00:49.869Z,20.40
2019-04-19T11:03:37.055Z,20.60
2019-04-19T11:06:25.054Z,20.60
2019-04-19T11:09:14.376Z,20.70
2019-04-19T11:12:03.712Z,20.80
2019-04-19T11:14:52.385Z,20.90
2019-04-19T11:17:41.271Z,20.90
2019-04-19T11:20:38.151Z,20.90
2019-04-19T11:23:21.788Z,20.60
2019-04-19T11:26:10.407Z,20.70
2019-04-19T11:28:58.929Z,20.70
2019-04-19T11:32:10.057Z,20.80
2019-04-19T11:34:58.927Z,21.00
2019-04-19T11:37:47.472Z,21.20
2019-04-19T11:40:35.429Z,21.40
2019-04-19T11:43:23.206Z,21.40
2019-04-19T11:46:11.722Z,21.20
2019-04-19T11:48:59.776Z,21.00
2019-04-19T11:51:48.458Z,21.10
2019-04-19T11:54:36.618Z,21.20
2019-04-19T11:57:34.673Z,21.40
2019-04-19T12:00:43.439Z,21.40
2019-04-19T12:03:32.213Z,21.40
2019-04-19T12:06:20.446Z,21.60
2019-04-19T12:09:12.458Z,21.60
2019-04-19T12:12:03.213Z,21.70
2019-04-19T12:14:50.494Z,21.60
2019-04-19T12:17:38.373Z,21.70
2019-04-19T12:20:26.849Z,21.60
2019-04-19T12:23:15.828Z,21.60
2019-04-19T12:26:05.927Z,21.50
2019-04-19T12:28:55.679Z,21.60
2019-04-19T12:31:43.857Z,21.70
2019-04-19T12:34:32.922Z,21.80
2019-04-19T12:37:20.987Z,21.80
2019-04-19T12:40:10.834Z,21.90
2019-04-19T12:43:00.110Z,21.90
2019-04-19T12:45:51.905Z,21.90
2019-04-19T12:48:41.654Z,21.90
2019-04-19T12:51:30.059Z,21.80
2019-04-19T12:54:18.709Z,21.80
2019-04-19T12:57:07.729Z,21.90
2019-04-19T12:59:55.942Z,21.80
2019-04-19T13:02:49.829Z,21.90
2019-04-19T13:05:41.632Z,21.70
2019-04-19T13:08:29.839Z,21.80
2019-04-19T13:11:18.774Z,21.90
2019-04-19T13:14:07.960Z,21.60
2019-04-19T13:16:56.396Z,21.50
2019-04-19T13:19:45.024Z,21.40
2019-04-19T13:22:34.497Z,21.40
2019-04-19T13:25:23.613Z,21.60
2019-04-19T13:28:13.263Z,21.60
2019-04-19T13:31:02.595Z,21.60
2019-04-19T13:33:51.408Z,21.80
2019-04-19T13:36:58.524Z,21.70
2019-04-19T13:40:06.135Z,21.90
2019-04-19T13:42:56.974Z,21.90
2019-04-19T13:45:44.790Z,21.90
2019-04-19T13:48:32.945Z,22.00
2019-04-19T13:51:22.746Z,21.90
2019-04-19T13:54:12.393Z,21.90
2019-04-19T13:57:01.628Z,22.00
2019-04-19T13:59:57.755Z,22.10
2019-04-19T14:02:39.259Z,22.10
2019-04-19T14:05:27.806Z,22.10
2019-04-19T14:08:17.410Z,22.10
2019-04-19T14:11:05.298Z,22.00
2019-04-19T14:13:55.984Z,21.80
2019-04-19T14:16:43.848Z,21.90
2019-04-19T14:19:31.967Z,22.10
2019-04-19T14:22:21.222Z,22.10
2019-04-19T14:25:09.814Z,22.10
2019-04-19T14:27:57.863Z,22.00
2019-04-19T14:30:45.568Z,22.00
2019-04-19T14:33:34.927Z,21.90
2019-04-19T14:36:22.605Z,21.90
2019-04-19T14:39:10.872Z,21.80
2019-04-19T14:41:59.398Z,21.80
2019-04-19T14:44:47.554Z,21.80
2019-04-19T14:47:35.482Z,21.80
2019-04-19T14:50:23.293Z,21.60
2019-04-19T14:53:12.299Z,21.50
2019-04-19T14:56:00.335Z,21.80
2019-04-19T14:58:48.534Z,21.80
2019-04-19T15:01:58.719Z,21.90
2019-04-19T15:04:51.821Z,21.60
2019-04-19T15:07:40.929Z,21.60
2019-04-19T15:10:29.373Z,21.70
2019-04-19T15:13:17.291Z,21.50
2019-04-19T15:16:06.539Z,21.50
2019-04-19T15:18:55.499Z,21.50
2019-04-19T15:21:43.931Z,21.70
2019-04-19T15:24:32.639Z,21.70
2019-04-19T15:27:21.225Z,21.70
2019-04-19T15:30:12.665Z,21.70
2019-04-19T15:33:00.511Z,21.70
2019-04-19T15:35:48.324Z,21.60
2019-04-19T15:38:37.726Z,21.60
2019-04-19T15:41:26.208Z,21.50
2019-04-19T15:44:14.759Z,21.60
2019-04-19T15:47:04.533Z,21.60
2019-04-19T15:49:51.970Z,21.60
2019-04-19T15:52:40.263Z,21.50
2019-04-19T15:55:28.283Z,21.50
2019-04-19T15:58:16.410Z,21.60
2019-04-19T16:01:08.080Z,21.60
2019-04-19T16:03:58.543Z,21.50
2019-04-19T16:07:05.995Z,21.30
2019-04-19T16:10:08.524Z,21.40
2019-04-19T16:12:53.799Z,21.50
2019-04-19T16:15:42.347Z,21.70
2019-04-19T16:18:29.972Z,21.70
2019-04-19T16:21:28.277Z,21.70
2019-04-19T16:24:07.184Z,21.60
2019-04-19T16:26:55.148Z,21.70
2019-04-19T16:29:48.929Z,21.80
2019-04-19T16:32:32.929Z,21.80
2019-04-19T16:35:22.186Z,22.10
2019-04-19T16:38:10.095Z,22.40
2019-04-19T16:40:58.893Z,22.60
2019-04-19T16:43:47.298Z,22.80
2019-04-19T16:46:37.096Z,23.00
2019-04-19T16:49:26.680Z,23.40
2019-04-19T16:52:16.017Z,24.10
2019-04-19T16:55:09.723Z,25.30
2019-04-19T16:59:01.094Z,26.40
2019-04-19T17:05:24.341Z,28.10
2019-04-19T17:08:13.608Z,28.40
2019-04-19T17:11:44.025Z,28.00
2019-04-19T17:14:47.211Z,27.80
2019-04-19T17:18:08.985Z,28.10
2019-04-19T17:21:57.105Z,28.10
2019-04-19T17:25:01.604Z,28.20
2019-04-19T17:28:32.878Z,28.00
2019-04-19T17:31:27.062Z,27.50
2019-04-19T17:34:16.116Z,27.10
2019-04-19T17:37:04.399Z,26.70
2019-04-19T17:39:52.969Z,26.20
2019-04-19T17:42:42.131Z,25.30
2019-04-19T17:45:30.071Z,24.30
2019-04-19T17:48:18.626Z,23.00
2019-04-19T17:51:06.527Z,22.20
2019-04-19T17:53:54.808Z,21.60
2019-04-19T17:56:42.653Z,21.10
2019-04-19T17:59:32.152Z,20.60
2019-04-19T18:02:21.260Z,20.10
2019-04-19T18:05:09.546Z,19.70
2019-04-19T18:07:58.037Z,19.50
2019-04-19T18:10:49.452Z,19.30
2019-04-19T18:13:37.580Z,19.20
2019-04-19T18:16:25.198Z,19.00
2019-04-19T18:19:16.786Z,18.80
2019-04-19T18:22:13.166Z,18.60
2019-04-19T18:24:58.254Z,18.50
2019-04-19T18:27:48.630Z,18.40
2019-04-19T18:30:34.563Z,18.20
2019-04-19T18:33:40.219Z,18.10
2019-04-19T18:36:29.514Z,18.00
2019-04-19T18:39:18.431Z,17.80
2019-04-19T18:42:07.948Z,17.80
2019-04-19T18:44:59.434Z,17.60
2019-04-19T18:47:45.216Z,17.50
2019-04-19T18:50:39.144Z,17.40
2019-04-19T18:53:34.273Z,17.30
2019-04-19T18:56:18.998Z,17.20
2019-04-19T18:59:11.009Z,17.10
2019-04-19T19:01:55.160Z,17.00
2019-04-19T19:04:42.961Z,16.90
2019-04-19T19:07:31.150Z,16.80
2019-04-19T19:10:25.746Z,16.70
2019-04-19T19:13:09.576Z,16.60
2019-04-19T19:15:58.249Z,16.40
2019-04-19T19:18:50.759Z,16.40
2019-04-19T19:21:40.690Z,16.30
2019-04-19T19:24:44.110Z,16.20
2019-04-19T19:27:20.447Z,16.20
2019-04-19T19:30:04.953Z,16.10
2019-04-19T19:32:56.689Z,16.00
2019-04-19T19:35:49.217Z,16.00
2019-04-19T19:38:35.647Z,15.90
2019-04-19T19:41:38.354Z,15.80
2019-04-19T19:44:23.789Z,15.80
2019-04-19T19:47:44.753Z,15.70
2019-04-19T19:51:05.965Z,15.70
2019-04-19T19:53:16.557Z,15.60
2019-04-19T19:56:15.913Z,15.50
2019-04-19T19:58:41.743Z,15.50
2019-04-19T20:01:34.140Z,15.40
2019-04-19T20:04:15.106Z,15.30
2019-04-19T20:07:07.575Z,15.30
2019-04-19T20:09:56.477Z,15.30
2019-04-19T20:12:47.982Z,15.20
2019-04-19T20:15:34.032Z,15.20
2019-04-19T20:18:24.060Z,15.10
2019-04-19T20:21:11.817Z,15.00
2019-04-19T20:24:10.410Z,15.00
2019-04-19T20:27:01.738Z,14.90
2019-04-19T20:29:35.728Z,14.90
2019-04-19T20:32:24.271Z,14.80
2019-04-19T20:35:16.688Z,14.70
2019-04-19T20:38:07.260Z,14.60
2019-04-19T20:40:57.696Z,14.50
2019-04-19T20:43:56.367Z,14.30
2019-04-19T20:46:31.579Z,14.10
2019-04-19T20:49:19.749Z,14.00
2019-04-19T20:52:17.801Z,13.80
2019-04-19T20:55:17.375Z,13.60
2019-04-19T20:58:10.475Z,13.60
2019-04-19T21:00:52.559Z,13.60
2019-04-19T21:03:41.488Z,13.50
2019-04-19T21:06:34.505Z,13.40
2019-04-19T21:09:24.780Z,13.30
2019-04-19T21:12:16.005Z,13.20
2019-04-19T21:15:10.439Z,13.20
2019-04-19T21:17:50.999Z,13.00
2019-04-19T21:20:38.406Z,12.90
2019-04-19T21:23:30.394Z,12.70
2019-04-19T21:26:20.625Z,12.40
2019-04-19T21:29:05.522Z,12.10
2019-04-19T21:31:55.926Z,11.90
2019-04-19T21:34:43.998Z,11.80
2019-04-19T21:37:38.663Z,11.60
2019-04-19T21:40:28.216Z,11.60
2019-04-19T21:43:12.948Z,11.50
2019-04-19T21:46:01.448Z,11.30
2019-04-19T21:48:49.144Z,11.20
2019-04-19T21:51:38.059Z,11.00
2019-04-19T21:54:26.462Z,10.90
2019-04-19T21:57:18.728Z,10.70
2019-04-19T22:00:11.810Z,10.60
2019-04-19T22:02:55.519Z,10.40
2019-04-19T22:05:43.244Z,10.30
2019-04-19T22:08:34.988Z,10.20
2019-04-19T22:11:20.625Z,10.10
2019-04-19T22:14:08.703Z,10.00
2019-04-19T22:16:56.787Z,9.90
2019-04-19T22:19:45.724Z,9.90
2019-04-19T22:22:35.308Z,9.90
2019-04-19T22:25:39.215Z,9.80
2019-04-19T22:28:13.016Z,9.70
2019-04-19T22:31:03.795Z,9.70
2019-04-19T22:33:50.368Z,9.50
2019-04-19T22:36:43.325Z,9.50
2019-04-19T22:39:27.837Z,9.30
2019-04-19T22:42:16.981Z,9.10
2019-04-19T22:45:09.949Z,9.20
2019-04-19T22:47:55.019Z,9.20
2019-04-19T22:50:44.482Z,9.20
2019-04-19T22:53:37.702Z,9.10
2019-04-19T22:56:29.564Z,8.90
2019-04-19T22:59:15.276Z,8.70
2019-04-19T23:02:16.589Z,8.70
2019-04-19T23:05:06.530Z,8.60
2019-04-19T23:07:58.238Z,8.60
2019-04-19T23:10:52.445Z,8.50
2019-04-19T23:13:35.603Z,8.60
2019-04-19T23:16:23.904Z,8.50
2019-04-19T23:19:14.527Z,8.40
2019-04-19T23:22:01.675Z,8.30
2019-04-19T23:24:56.768Z,8.20
2019-04-19T23:27:48.424Z,8.10
2019-04-19T23:30:32.178Z,8.10
2019-04-19T23:33:21.134Z,8.10
2019-04-19T23:36:12.811Z,7.90
2019-04-19T23:39:03.135Z,7.80
2019-04-19T23:41:47.289Z,7.70
2019-04-19T23:44:35.512Z,7.70
2019-04-19T23:47:24.438Z,7.70
2019-04-19T23:50:12.701Z,7.70
2019-04-19T23:53:02.539Z,7.60
2019-04-19T23:55:50.683Z,7.40
2019-04-19T23:58:41.143Z,7.40
